Time;durP1;ratioP1;P1;durP2;ratioP2;P2;SDS_P1;SDS_P2;PMS_P1;PMS_P2;Temp;Humidity;BMP_temperature;BMP_pressure;BME280_temperature;BME280_humidity;BME280_pressure;Samples;Min_cycle;Max_cycle;Signal;HPM_P1;HPM_P2
2021/01/10 00:00:32;;;;;;;14.97;9.43;;;;;;;;;;4833082;29;20203;-80
2021/01/10 00:03:00;;;;;;;14.40;9.23;;;;;;;;;;4819097;29;20278;-79
2021/01/10 00:05:30;;;;;;;15.60;9.07;;;;;;;;;;4806904;29;20682;-79
2021/01/10 00:08:00;;;;;;;14.63;8.83;;;;;;;;;;4792402;29;20207;-79
2021/01/10 00:10:30;;;;;;;15.43;8.27;;;;;;;;;;4806868;29;20683;-79
2021/01/10 00:12:59;;;;;;;13.70;7.80;;;;;;;;;;4807751;29;20239;-79
2021/01/10 00:15:28;;;;;;;14.20;8.53;;;;;;;;;;4806505;29;20216;-79
2021/01/10 00:17:57;;;;;;;15.47;9.23;;;;;;;;;;4823023;29;20573;-79
2021/01/10 00:20:27;;;;;;;15.90;9.23;;;;;;;;;;4806925;29;20209;-79
2021/01/10 00:22:56;;;;;;;15.77;8.77;;;;;;;;;;4807548;29;20236;-80
2021/01/10 00:25:25;;;;;;;12.30;8.27;;;;;;;;;;4820178;29;20586;-79
2021/01/10 00:28:03;;;;;;;15.90;9.30;;;;;;;;;;4821453;29;20227;-79
2021/01/10 00:30:31;;;;;;;15.77;9.30;;;;;;;;;;4809554;29;20227;-80
2021/01/10 00:32:59;;;;;;;13.30;8.40;;;;;;;;;;4805510;29;20235;-79
2021/01/10 00:35:29;;;;;;;13.77;8.37;;;;;;;;;;4804716;29;20204;-79
2021/01/10 00:37:58;;;;;;;15.20;9.13;;;;;;;;;;4795895;29;20226;-79
2021/01/10 00:40:27;;;;;;;13.90;8.90;;;;;;;;;;4806191;29;20208;-79
2021/01/10 00:42:55;;;;;;;14.80;9.33;;;;;;;;;;4803785;29;20239;-79
2021/01/10 00:45:23;;;;;;;13.80;7.80;;;;;;;;;;4820961;29;20192;-80
2021/01/10 00:47:54;;;;;;;14.90;8.63;;;;;;;;;;4835972;29;20492;-79
2021/01/10 00:50:37;;;;;;;13.87;8.30;;;;;;;;;;4825726;29;20252;-79
2021/01/10 00:53:09;;;;;;;13.97;8.43;;;;;;;;;;4806569;29;20227;-79
2021/01/10 00:55:40;;;;;;;12.73;8.13;;;;;;;;;;4806446;29;20216;-79
2021/01/10 00:58:10;;;;;;;14.40;7.77;;;;;;;;;;4803517;29;20212;-79
2021/01/10 01:00:40;;;;;;;12.73;8.13;;;;;;;;;;4805704;29;20215;-79
2021/01/10 01:03:07;;;;;;;12.80;8.33;;;;;;;;;;4804731;29;20711;-79
2021/01/10 01:05:41;;;;;;;13.50;7.97;;;;;;;;;;4820912;29;20216;-79
2021/01/10 01:08:11;;;;;;;14.30;8.73;;;;;;;;;;4805519;29;20220;-80
2021/01/10 01:10:47;;;;;;;12.50;7.90;;;;;;;;;;4805527;29;20265;-80
2021/01/10 01:13:16;;;;;;;11.80;7.83;;;;;;;;;;4818669;29;20232;-79
2021/01/10 01:15:43;;;;;;;14.77;8.67;;;;;;;;;;4803379;29;20227;-79
2021/01/10 01:18:11;;;;;;;12.47;7.87;;;;;;;;;;4805252;29;20230;-80
2021/01/10 01:20:42;;;;;;;13.33;8.20;;;;;;;;;;4803497;29;20231;-79
2021/01/10 01:23:10;;;;;;;14.57;8.93;;;;;;;;;;4822325;29;20231;-79
2021/01/10 01:25:44;;;;;;;14.57;9.30;;;;;;;;;;4806038;29;20204;-80
2021/01/10 01:28:13;;;;;;;11.43;7.67;;;;;;;;;;4820689;29;20217;-79
2021/01/10 01:30:41;;;;;;;12.83;8.17;;;;;;;;;;4805394;29;20239;-79
2021/01/10 01:33:09;;;;;;;13.37;8.83;;;;;;;;;;4804985;29;20246;-79
2021/01/10 01:35:37;;;;;;;13.57;8.37;;;;;;;;;;4805375;29;20219;-79
2021/01/10 01:38:05;;;;;;;12.07;8.23;;;;;;;;;;4795434;29;20212;-79
2021/01/10 01:40:33;;;;;;;11.83;7.80;;;;;;;;;;4805097;29;20485;-79
2021/01/10 01:43:03;;;;;;;14.60;8.60;;;;;;;;;;4804950;29;20749;-79
2021/01/10 01:45:33;;;;;;;13.20;7.23;;;;;;;;;;4814099;29;20218;-79
2021/01/10 01:48:12;;;;;;;11.17;7.70;;;;;;;;;;4790975;29;20558;-79
2021/01/10 01:50:40;;;;;;;11.87;8.27;;;;;;;;;;4805730;29;20218;-79
2021/01/10 01:53:09;;;;;;;12.17;8.07;;;;;;;;;;4805393;29;20239;-79
2021/01/10 01:55:38;;;;;;;12.53;7.90;;;;;;;;;;4790938;29;20211;-79
2021/01/10 01:58:06;;;;;;;12.87;8.23;;;;;;;;;;4807337;29;20211;-79
2021/01/10 02:00:35;;;;;;;12.27;8.10;;;;;;;;;;4805946;29;20220;-79
2021/01/10 02:03:05;;;;;;;13.20;7.27;;;;;;;;;;4805567;29;20250;-79
2021/01/10 02:05:34;;;;;;;12.13;7.90;;;;;;;;;;4792016;29;20322;-79
2021/01/10 02:08:07;;;;;;;12.43;7.63;;;;;;;;;;4824798;29;20224;-79
2021/01/10 02:10:38;;;;;;;13.10;8.20;;;;;;;;;;4822502;29;20214;-79
2021/01/10 02:13:11;;;;;;;12.13;7.50;;;;;;;;;;4813619;29;20243;-79
2021/01/10 02:15:41;;;;;;;11.97;8.03;;;;;;;;;;4824911;29;20231;-79
2021/01/10 02:18:11;;;;;;;12.97;7.80;;;;;;;;;;4805187;29;20219;-79
2021/01/10 02:20:41;;;;;;;12.80;7.87;;;;;;;;;;4804619;29;20670;-79
2021/01/10 02:23:13;;;;;;;12.17;7.47;;;;;;;;;;4805176;29;20726;-79
2021/01/10 02:25:44;;;;;;;12.27;7.70;;;;;;;;;;4805561;29;20223;-79
2021/01/10 02:28:12;;;;;;;13.57;8.60;;;;;;;;;;4830327;29;20710;-80
2021/01/10 02:30:43;;;;;;;13.00;8.03;;;;;;;;;;4803563;29;20215;-79
2021/01/10 02:33:15;;;;;;;12.43;8.10;;;;;;;;;;4820031;29;20250;-79
2021/01/10 02:35:44;;;;;;;15.00;8.67;;;;;;;;;;4806393;29;20219;-79
2021/01/10 02:38:33;;;;;;;13.13;8.07;;;;;;;;;;4805608;29;20674;-79
2021/01/10 02:41:15;;;;;;;14.70;8.90;;;;;;;;;;4817204;29;20219;-81
2021/01/10 02:43:50;;;;;;;13.87;9.03;;;;;;;;;;4841374;29;20229;-80
2021/01/10 02:46:19;;;;;;;13.20;8.13;;;;;;;;;;4827368;29;20196;-80
2021/01/10 02:48:49;;;;;;;13.47;8.47;;;;;;;;;;4827837;29;20199;-80
2021/01/10 02:51:18;;;;;;;12.30;8.10;;;;;;;;;;4827662;29;20220;-80
2021/01/10 02:53:46;;;;;;;12.80;7.90;;;;;;;;;;4832132;29;20232;-81
2021/01/10 02:56:18;;;;;;;13.87;7.83;;;;;;;;;;4831264;29;20231;-80
2021/01/10 02:58:49;;;;;;;13.90;7.87;;;;;;;;;;4810191;29;20231;-79
2021/01/10 03:01:19;;;;;;;14.10;7.73;;;;;;;;;;4806987;29;20236;-79
2021/01/10 03:03:49;;;;;;;14.53;9.10;;;;;;;;;;4824014;29;21040;-80
2021/01/10 03:06:18;;;;;;;17.03;8.67;;;;;;;;;;4808264;29;20675;-80
2021/01/10 03:08:50;;;;;;;12.37;8.13;;;;;;;;;;4820660;29;20219;-80
2021/01/10 03:11:21;;;;;;;13.43;8.63;;;;;;;;;;4829122;29;20212;-79
2021/01/10 03:13:50;;;;;;;11.63;7.70;;;;;;;;;;4829960;29;20238;-80
2021/01/10 03:16:21;;;;;;;14.50;9.03;;;;;;;;;;4829246;29;20210;-79
2021/01/10 03:18:50;;;;;;;13.63;8.33;;;;;;;;;;4834306;29;20226;-78
2021/01/10 03:21:19;;;;;;;13.57;8.13;;;;;;;;;;4827852;29;20192;-79
2021/01/10 03:23:48;;;;;;;14.17;8.27;;;;;;;;;;4826003;29;20231;-78
2021/01/10 03:26:17;;;;;;;12.10;7.83;;;;;;;;;;4807944;29;20211;-80
2021/01/10 03:28:47;;;;;;;13.47;8.47;;;;;;;;;;4807654;29;20211;-78
2021/01/10 03:31:16;;;;;;;13.47;8.30;;;;;;;;;;4821131;29;20262;-80
2021/01/10 03:33:47;;;;;;;14.13;8.80;;;;;;;;;;4791901;29;20831;-78
2021/01/10 03:36:17;;;;;;;14.53;8.83;;;;;;;;;;4791894;29;20236;-79
2021/01/10 03:38:46;;;;;;;12.90;8.37;;;;;;;;;;4829972;29;20214;-79
2021/01/10 03:41:16;;;;;;;13.53;8.63;;;;;;;;;;4829473;29;20203;-79
2021/01/10 03:43:44;;;;;;;12.43;8.00;;;;;;;;;;4808637;29;20605;-78
2021/01/10 03:46:13;;;;;;;13.63;7.90;;;;;;;;;;4820385;29;20228;-79
2021/01/10 03:48:42;;;;;;;12.23;7.53;;;;;;;;;;4805233;29;20216;-78
2021/01/10 03:51:11;;;;;;;13.57;8.57;;;;;;;;;;4791175;29;20572;-79
2021/01/10 03:53:40;;;;;;;13.17;8.17;;;;;;;;;;4820820;29;20255;-79
2021/01/10 03:56:10;;;;;;;13.23;8.80;;;;;;;;;;4821159;29;20208;-79
2021/01/10 03:58:40;;;;;;;12.37;8.17;;;;;;;;;;4821508;29;20226;-79
2021/01/10 04:01:09;;;;;;;12.30;7.77;;;;;;;;;;4805782;29;20346;-79
2021/01/10 04:03:39;;;;;;;13.73;8.03;;;;;;;;;;4789866;29;20244;-79
2021/01/10 04:06:08;;;;;;;12.40;7.80;;;;;;;;;;4806046;29;20223;-79
2021/01/10 04:08:38;;;;;;;12.07;7.50;;;;;;;;;;4823218;29;20217;-79
2021/01/10 04:11:07;;;;;;;11.30;7.57;;;;;;;;;;4810126;29;20235;-79
2021/01/10 04:13:35;;;;;;;13.23;8.40;;;;;;;;;;4838219;29;20238;-79
2021/01/10 04:16:06;;;;;;;12.97;7.53;;;;;;;;;;4805727;29;20230;-79
2021/01/10 04:18:35;;;;;;;12.23;7.43;;;;;;;;;;4806416;29;20226;-79
2021/01/10 04:21:05;;;;;;;12.77;7.93;;;;;;;;;;4806111;29;20212;-79
2021/01/10 04:23:35;;;;;;;11.70;7.83;;;;;;;;;;4826920;29;20237;-79
2021/01/10 04:26:05;;;;;;;12.63;7.47;;;;;;;;;;4828993;29;20200;-79
2021/01/10 04:28:34;;;;;;;11.03;7.20;;;;;;;;;;4833462;29;20218;-79
2021/01/10 04:31:05;;;;;;;10.70;7.53;;;;;;;;;;4825247;29;20216;-79
2021/01/10 04:33:35;;;;;;;11.07;7.00;;;;;;;;;;4804945;29;20238;-79
2021/01/10 04:36:07;;;;;;;11.43;7.30;;;;;;;;;;4805092;29;20222;-79
2021/01/10 04:38:35;;;;;;;11.43;7.57;;;;;;;;;;4819527;29;20219;-80
2021/01/10 04:41:05;;;;;;;11.80;7.63;;;;;;;;;;4818951;29;20224;-79
2021/01/10 04:43:35;;;;;;;10.50;7.00;;;;;;;;;;4819133;29;20242;-79
2021/01/10 04:46:05;;;;;;;12.13;7.80;;;;;;;;;;4804747;29;20216;-79
2021/01/10 04:48:34;;;;;;;10.80;7.17;;;;;;;;;;4804768;29;20239;-79
2021/01/10 04:51:05;;;;;;;11.90;7.33;;;;;;;;;;4805071;29;20232;-79
2021/01/10 04:53:35;;;;;;;12.60;7.47;;;;;;;;;;4804556;29;20264;-79
2021/01/10 04:56:06;;;;;;;11.37;7.17;;;;;;;;;;4804572;29;20220;-79
2021/01/10 04:58:36;;;;;;;10.90;6.73;;;;;;;;;;4818398;29;20205;-79
2021/01/10 05:01:05;;;;;;;11.30;7.23;;;;;;;;;;4801790;29;20223;-79
2021/01/10 05:03:35;;;;;;;11.80;7.57;;;;;;;;;;4789451;29;20239;-78
2021/01/10 05:06:05;;;;;;;9.00;6.30;;;;;;;;;;4804363;29;20222;-78
2021/01/10 05:08:33;;;;;;;12.97;7.73;;;;;;;;;;4812891;29;20670;-79
2021/01/10 05:11:04;;;;;;;11.43;7.67;;;;;;;;;;4820080;29;20207;-79
2021/01/10 05:13:33;;;;;;;11.37;7.43;;;;;;;;;;4824166;29;20246;-79
2021/01/10 05:16:02;;;;;;;11.23;7.10;;;;;;;;;;4792207;29;20235;-80
2021/01/10 05:18:31;;;;;;;13.87;7.87;;;;;;;;;;4788770;29;20212;-79
2021/01/10 05:20:59;;;;;;;11.83;6.97;;;;;;;;;;4819473;29;20211;-79
2021/01/10 05:23:29;;;;;;;11.27;7.27;;;;;;;;;;4790929;29;20322;-79
2021/01/10 05:26:05;;;;;;;12.77;7.83;;;;;;;;;;4788989;29;20588;-79
2021/01/10 05:28:35;;;;;;;13.63;7.90;;;;;;;;;;4796156;29;20215;-79
2021/01/10 05:31:10;;;;;;;9.37;6.70;;;;;;;;;;4806497;29;20218;-79
2021/01/10 05:33:49;;;;;;;10.83;6.80;;;;;;;;;;4788319;29;20248;-79
2021/01/10 05:36:29;;;;;;;12.33;7.80;;;;;;;;;;4812180;29;20223;-79
2021/01/10 05:39:16;;;;;;;11.73;7.73;;;;;;;;;;4801137;29;20226;-79
2021/01/10 05:41:56;;;;;;;11.90;7.60;;;;;;;;;;4803508;29;20223;-79
2021/01/10 05:44:26;;;;;;;12.03;7.70;;;;;;;;;;4796728;29;20563;-79
2021/01/10 05:47:04;;;;;;;12.67;7.40;;;;;;;;;;4804334;29;20242;-79
2021/01/10 05:49:34;;;;;;;11.93;7.43;;;;;;;;;;4802086;29;20215;-79
2021/01/10 05:52:08;;;;;;;12.63;7.87;;;;;;;;;;4802291;29;20219;-79
2021/01/10 05:54:39;;;;;;;12.20;7.80;;;;;;;;;;4801986;29;20212;-79
2021/01/10 05:57:08;;;;;;;11.27;6.93;;;;;;;;;;4811850;29;20603;-79
2021/01/10 05:59:37;;;;;;;11.10;6.67;;;;;;;;;;4803207;29;20226;-79
2021/01/10 06:02:06;;;;;;;9.13;5.90;;;;;;;;;;4819499;29;20222;-79
2021/01/10 06:04:36;;;;;;;10.47;7.30;;;;;;;;;;4822588;29;20214;-79
2021/01/10 06:07:05;;;;;;;10.73;6.87;;;;;;;;;;4795435;29;20218;-79
2021/01/10 06:09:48;;;;;;;9.97;6.60;;;;;;;;;;4803440;29;20571;-79
2021/01/10 06:12:21;;;;;;;10.90;6.80;;;;;;;;;;4809623;29;20232;-79
2021/01/10 06:14:50;;;;;;;10.33;6.57;;;;;;;;;;4805994;29;20233;-79
2021/01/10 06:17:19;;;;;;;10.70;6.20;;;;;;;;;;4816686;29;20231;-79
2021/01/10 06:19:50;;;;;;;10.23;6.83;;;;;;;;;;4813892;29;20209;-79
2021/01/10 06:22:19;;;;;;;10.07;6.97;;;;;;;;;;4802776;29;20718;-79
2021/01/10 06:24:48;;;;;;;10.60;6.57;;;;;;;;;;4788207;29;20215;-80
2021/01/10 06:27:22;;;;;;;9.87;7.03;;;;;;;;;;4804313;29;20229;-79
2021/01/10 06:29:53;;;;;;;12.17;6.53;;;;;;;;;;4806775;29;20210;-79
2021/01/10 06:32:24;;;;;;;10.00;6.13;;;;;;;;;;4806655;29;20235;-79
2021/01/10 06:34:53;;;;;;;9.17;6.37;;;;;;;;;;4828768;29;20219;-79
2021/01/10 06:37:21;;;;;;;10.53;6.23;;;;;;;;;;4830608;29;20207;-80
2021/01/10 06:39:55;;;;;;;10.93;6.90;;;;;;;;;;4816322;29;20210;-79
2021/01/10 06:42:24;;;;;;;11.50;6.70;;;;;;;;;;4843682;29;20223;-80
2021/01/10 06:44:55;;;;;;;9.03;6.40;;;;;;;;;;4808940;29;20227;-79
2021/01/10 06:47:25;;;;;;;10.93;6.63;;;;;;;;;;4806655;29;20697;-80
2021/01/10 06:49:54;;;;;;;10.17;6.93;;;;;;;;;;4806216;29;20234;-79
2021/01/10 06:52:24;;;;;;;9.83;6.60;;;;;;;;;;4805955;29;20237;-79
2021/01/10 06:54:55;;;;;;;9.53;6.10;;;;;;;;;;4806521;29;20222;-79
2021/01/10 06:57:30;;;;;;;9.80;6.53;;;;;;;;;;4805586;29;20228;-79
2021/01/10 07:00:08;;;;;;;10.07;6.57;;;;;;;;;;4806244;29;20204;-80
2021/01/10 07:03:12;;;;;;;7.43;5.40;;;;;;;;;;4828269;29;20219;-79
2021/01/10 07:06:01;;;;;;;11.63;6.90;;;;;;;;;;4823460;29;20230;-79
2021/01/10 07:08:30;;;;;;;9.63;6.20;;;;;;;;;;4825894;29;20199;-79
2021/01/10 07:11:38;;;;;;;9.13;5.67;;;;;;;;;;4811590;29;20572;-79
2021/01/10 07:14:25;;;;;;;12.77;6.30;;;;;;;;;;4774241;29;20642;-79
2021/01/10 07:17:16;;;;;;;10.20;6.63;;;;;;;;;;4818149;29;20220;-79
2021/01/10 07:19:48;;;;;;;9.63;6.07;;;;;;;;;;4818090;29;20576;-79
2021/01/10 07:22:33;;;;;;;9.33;6.87;;;;;;;;;;4804155;29;20245;-79
2021/01/10 07:25:35;;;;;;;11.50;6.47;;;;;;;;;;4812415;29;20215;-79
2021/01/10 07:28:37;;;;;;;10.10;6.43;;;;;;;;;;4820068;29;20673;-79
2021/01/10 07:31:07;;;;;;;10.53;6.60;;;;;;;;;;4823298;29;20204;-79
2021/01/10 07:33:36;;;;;;;10.83;6.40;;;;;;;;;;4790376;29;20239;-79
2021/01/10 07:36:05;;;;;;;11.23;6.63;;;;;;;;;;4803892;29;20212;-79
2021/01/10 07:38:37;;;;;;;11.60;6.70;;;;;;;;;;4806559;29;20211;-79
2021/01/10 07:41:36;;;;;;;11.00;7.07;;;;;;;;;;4796353;29;20215;-79
2021/01/10 07:44:05;;;;;;;11.00;7.27;;;;;;;;;;4764477;30;20258;-79
2021/01/10 07:47:02;;;;;;;10.50;6.63;;;;;;;;;;4798057;29;20205;-79
2021/01/10 07:49:50;;;;;;;10.37;6.90;;;;;;;;;;4832434;29;20211;-80
2021/01/10 07:52:50;;;;;;;12.53;6.93;;;;;;;;;;4817073;29;20225;-79
2021/01/10 07:55:24;;;;;;;9.97;6.57;;;;;;;;;;4803078;29;20228;-79
2021/01/10 07:57:53;;;;;;;10.67;7.00;;;;;;;;;;4829096;29;20231;-79
2021/01/10 08:00:24;;;;;;;11.23;6.53;;;;;;;;;;4813140;29;20215;-79
2021/01/10 08:02:58;;;;;;;10.07;6.40;;;;;;;;;;4802056;29;20238;-79
2021/01/10 08:05:29;;;;;;;9.53;6.53;;;;;;;;;;4796526;29;20232;-79
2021/01/10 08:08:03;;;;;;;9.77;6.80;;;;;;;;;;4814665;29;20693;-79
2021/01/10 08:10:43;;;;;;;9.97;7.00;;;;;;;;;;4804057;29;20209;-79
2021/01/10 08:13:31;;;;;;;10.33;6.90;;;;;;;;;;4804149;29;20249;-79
2021/01/10 08:16:00;;;;;;;10.63;6.97;;;;;;;;;;4805218;29;20238;-79
2021/01/10 08:18:35;;;;;;;10.87;6.67;;;;;;;;;;4804886;29;20564;-80
2021/01/10 08:21:06;;;;;;;11.23;7.03;;;;;;;;;;4819000;29;20218;-79
2021/01/10 08:23:35;;;;;;;11.27;7.20;;;;;;;;;;4802236;29;20566;-79
2021/01/10 08:26:09;;;;;;;10.40;7.37;;;;;;;;;;4815669;29;20588;-79
2021/01/10 08:28:39;;;;;;;10.80;6.90;;;;;;;;;;4798115;29;20215;-79
2021/01/10 08:31:10;;;;;;;11.47;7.13;;;;;;;;;;4819276;29;20590;-79
2021/01/10 08:33:42;;;;;;;9.97;6.13;;;;;;;;;;4818559;29;20254;-80
2021/01/10 08:36:14;;;;;;;11.37;6.90;;;;;;;;;;4823171;29;20223;-79
2021/01/10 08:38:51;;;;;;;11.53;7.40;;;;;;;;;;4807852;29;20226;-79
2021/01/10 08:41:24;;;;;;;10.60;6.63;;;;;;;;;;4806828;29;20207;-79
2021/01/10 08:43:54;;;;;;;12.77;7.03;;;;;;;;;;4797587;29;20363;-79
2021/01/10 08:46:23;;;;;;;11.47;7.13;;;;;;;;;;4818669;29;20219;-79
2021/01/10 08:48:53;;;;;;;12.50;7.03;;;;;;;;;;4814643;29;20231;-80
2021/01/10 08:51:36;;;;;;;10.60;7.40;;;;;;;;;;4808993;29;20225;-79
2021/01/10 08:54:09;;;;;;;13.97;7.17;;;;;;;;;;4804994;29;20243;-79
2021/01/10 08:56:39;;;;;;;12.53;7.43;;;;;;;;;;4811961;29;20237;-79
2021/01/10 08:59:09;;;;;;;9.93;6.50;;;;;;;;;;4804133;29;20215;-79
2021/01/10 09:01:39;;;;;;;9.97;6.20;;;;;;;;;;4816617;29;20576;-79
2021/01/10 09:04:10;;;;;;;10.30;6.80;;;;;;;;;;4821639;29;20259;-79
2021/01/10 09:06:45;;;;;;;11.50;6.93;;;;;;;;;;4803973;29;20690;-79
2021/01/10 09:09:20;;;;;;;10.70;7.03;;;;;;;;;;4818682;29;20250;-79
2021/01/10 09:11:56;;;;;;;10.70;7.27;;;;;;;;;;4803620;29;20536;-79
2021/01/10 09:14:25;;;;;;;10.73;6.53;;;;;;;;;;4830059;29;20224;-79
2021/01/10 09:16:53;;;;;;;12.17;7.37;;;;;;;;;;4801015;29;20234;-79
2021/01/10 09:19:23;;;;;;;10.43;7.07;;;;;;;;;;4803407;29;20221;-79
2021/01/10 09:21:52;;;;;;;12.23;7.37;;;;;;;;;;4801710;29;20215;-79
2021/01/10 09:24:20;;;;;;;11.33;7.20;;;;;;;;;;4817151;29;20602;-79
2021/01/10 09:26:48;;;;;;;10.70;7.30;;;;;;;;;;4788478;29;20213;-79
2021/01/10 09:29:19;;;;;;;11.33;6.77;;;;;;;;;;4804633;29;20219;-79
2021/01/10 09:31:49;;;;;;;12.03;7.10;;;;;;;;;;4803095;29;20687;-79
2021/01/10 09:34:26;;;;;;;10.40;6.60;;;;;;;;;;4818393;29;20252;-79
2021/01/10 09:37:03;;;;;;;11.27;7.37;;;;;;;;;;4804341;29;20219;-79
2021/01/10 09:39:42;;;;;;;11.57;7.20;;;;;;;;;;4810657;29;20219;-79
2021/01/10 09:42:12;;;;;;;11.80;6.90;;;;;;;;;;4802584;29;20207;-79
2021/01/10 09:44:41;;;;;;;11.30;7.67;;;;;;;;;;4803662;29;20211;-79
2021/01/10 09:47:12;;;;;;;11.33;7.77;;;;;;;;;;4806133;29;20212;-79
2021/01/10 09:49:45;;;;;;;11.10;6.93;;;;;;;;;;4805300;29;20216;-79
2021/01/10 09:52:13;;;;;;;10.20;6.60;;;;;;;;;;4804650;29;20208;-79
2021/01/10 09:54:41;;;;;;;12.27;7.27;;;;;;;;;;4812614;29;20240;-79
2021/01/10 09:57:18;;;;;;;12.47;7.23;;;;;;;;;;4790135;29;20239;-80
2021/01/10 09:59:47;;;;;;;12.07;7.03;;;;;;;;;;4800411;29;20449;-79
2021/01/10 10:02:19;;;;;;;11.90;6.77;;;;;;;;;;4801421;29;20223;-79
2021/01/10 10:04:52;;;;;;;11.67;7.17;;;;;;;;;;4828362;29;20684;-80
2021/01/10 10:07:33;;;;;;;10.43;6.60;;;;;;;;;;4800105;29;20587;-80
2021/01/10 10:10:07;;;;;;;11.17;6.43;;;;;;;;;;4787456;29;20676;-80
2021/01/10 10:12:37;;;;;;;14.03;7.03;;;;;;;;;;4824272;29;20229;-81
2021/01/10 10:15:09;;;;;;;11.50;7.00;;;;;;;;;;4825962;29;20220;-80
2021/01/10 10:17:40;;;;;;;11.73;7.00;;;;;;;;;;4808938;29;20193;-82
2021/01/10 10:20:40;;;;;;;13.87;8.23;;;;;;;;;;4807691;29;20222;-81
2021/01/10 10:23:18;;;;;;;10.80;6.90;;;;;;;;;;4826346;29;20209;-81
2021/01/10 10:25:51;;;;;;;11.03;7.17;;;;;;;;;;4826612;29;20210;-80
2021/01/10 10:28:23;;;;;;;11.37;6.23;;;;;;;;;;4803159;29;20219;-79
2021/01/10 10:30:53;;;;;;;10.17;6.77;;;;;;;;;;4803282;29;20208;-80
2021/01/10 10:33:23;;;;;;;9.17;7.00;;;;;;;;;;4803409;29;20577;-80
2021/01/10 10:35:57;;;;;;;9.87;6.83;;;;;;;;;;4802621;29;20715;-84
2021/01/10 10:38:27;;;;;;;11.17;7.23;;;;;;;;;;4817707;29;20271;-79
2021/01/10 10:40:58;;;;;;;11.03;6.80;;;;;;;;;;4800363;29;20227;-80
2021/01/10 10:43:50;;;;;;;10.50;6.93;;;;;;;;;;4802752;29;20237;-80
2021/01/10 10:46:33;;;;;;;11.63;7.47;;;;;;;;;;4803391;29;20204;-83
2021/01/10 10:49:05;;;;;;;10.53;7.30;;;;;;;;;;4818000;29;20602;-81
2021/01/10 10:51:39;;;;;;;11.27;6.70;;;;;;;;;;4786562;29;20216;-83
2021/01/10 10:54:14;;;;;;;9.00;6.60;;;;;;;;;;4803092;29;20232;-81
2021/01/10 10:56:43;;;;;;;10.33;7.23;;;;;;;;;;4793001;29;20231;-82
2021/01/10 10:59:12;;;;;;;10.50;6.90;;;;;;;;;;4802232;29;20235;-80
2021/01/10 11:01:41;;;;;;;11.43;7.07;;;;;;;;;;4800890;29;20212;-84
2021/01/10 11:04:09;;;;;;;9.57;6.40;;;;;;;;;;4785010;29;20236;-81
2021/01/10 11:06:38;;;;;;;12.70;7.47;;;;;;;;;;4807743;29;20215;-82
2021/01/10 11:09:07;;;;;;;9.53;6.40;;;;;;;;;;4787042;29;20213;-81
2021/01/10 11:11:36;;;;;;;9.40;6.17;;;;;;;;;;4801777;29;20216;-83
2021/01/10 11:14:05;;;;;;;9.43;6.60;;;;;;;;;;4805078;29;20236;-81
2021/01/10 11:16:33;;;;;;;9.90;6.77;;;;;;;;;;4805804;29;20212;-80
2021/01/10 11:19:04;;;;;;;10.37;6.83;;;;;;;;;;4798578;29;20419;-81
2021/01/10 11:21:33;;;;;;;10.73;7.03;;;;;;;;;;4806190;29;20590;-87
2021/01/10 11:24:02;;;;;;;10.00;6.83;;;;;;;;;;4820691;29;20231;-81
2021/01/10 11:26:36;;;;;;;9.10;6.70;;;;;;;;;;4805154;29;20402;-81
2021/01/10 11:29:22;;;;;;;8.60;6.40;;;;;;;;;;4808195;29;20217;-81
2021/01/10 11:31:52;;;;;;;9.67;6.97;;;;;;;;;;4803560;29;20208;-81
2021/01/10 11:34:21;;;;;;;8.17;5.80;;;;;;;;;;4804891;29;20228;-81
2021/01/10 11:36:51;;;;;;;11.67;6.53;;;;;;;;;;4790551;29;20212;-81
2021/01/10 11:39:21;;;;;;;9.40;6.40;;;;;;;;;;4804809;29;20213;-84
2021/01/10 11:41:50;;;;;;;8.03;5.47;;;;;;;;;;4820173;29;20259;-84
2021/01/10 11:44:19;;;;;;;8.70;6.43;;;;;;;;;;4800875;29;20708;-83
2021/01/10 11:46:51;;;;;;;9.77;6.80;;;;;;;;;;4804175;29;20212;-85
2021/01/10 11:53:54;;;;;;;12.37;6.83;;;;;;;;;;4804433;29;20519;-81
2021/01/10 11:56:29;;;;;;;8.03;6.37;;;;;;;;;;4802955;29;20232;-79
2021/01/10 11:58:57;;;;;;;9.73;6.77;;;;;;;;;;4819280;29;20514;-82
2021/01/10 12:01:30;;;;;;;8.93;6.40;;;;;;;;;;4801131;29;20227;-81
2021/01/10 12:03:58;;;;;;;8.20;6.00;;;;;;;;;;4795681;29;20232;-83
2021/01/10 12:06:25;;;;;;;8.97;6.30;;;;;;;;;;4803682;29;20213;-88
2021/01/10 12:08:53;;;;;;;8.50;6.07;;;;;;;;;;4794130;29;20219;-85
2021/01/10 12:11:21;;;;;;;9.23;5.97;;;;;;;;;;4818215;29;20219;-80
2021/01/10 12:13:51;;;;;;;9.83;5.70;;;;;;;;;;4786981;29;20236;-81
2021/01/10 12:16:20;;;;;;;8.43;5.70;;;;;;;;;;4829039;29;20236;-83
2021/01/10 12:18:48;;;;;;;7.67;5.73;;;;;;;;;;4819976;29;20599;-82
2021/01/10 12:21:16;;;;;;;10.47;6.77;;;;;;;;;;4803514;29;20217;-85
2021/01/10 12:23:44;;;;;;;9.40;6.33;;;;;;;;;;4804837;29;20229;-84
2021/01/10 12:26:12;;;;;;;9.47;6.33;;;;;;;;;;4799926;29;20835;-81
2021/01/10 12:28:41;;;;;;;7.88;6.00;;;;;;;;;;4819552;29;20216;-85
2021/01/10 12:31:09;;;;;;;9.05;6.53;;;;;;;;;;4803443;29;20220;-81
2021/01/10 12:33:38;;;;;;;8.43;6.40;;;;;;;;;;4791163;29;20240;-81
2021/01/10 12:36:09;;;;;;;8.20;6.32;;;;;;;;;;4802463;29;20221;-82
2021/01/10 12:38:42;;;;;;;7.37;5.80;;;;;;;;;;4822246;29;20238;-81
2021/01/10 12:41:10;;;;;;;8.13;5.90;;;;;;;;;;4804059;29;20219;-81
2021/01/10 12:43:38;;;;;;;8.93;5.88;;;;;;;;;;4817328;29;20247;-81
2021/01/10 12:46:05;;;;;;;9.45;6.15;;;;;;;;;;4803533;29;20216;-82
2021/01/10 12:48:34;;;;;;;7.53;5.13;;;;;;;;;;4787107;29;20208;-81
2021/01/10 12:51:02;;;;;;;7.45;6.00;;;;;;;;;;4802745;29;20220;-81
2021/01/10 12:53:29;;;;;;;7.57;5.63;;;;;;;;;;4799308;29;20247;-81
2021/01/10 12:55:57;;;;;;;9.45;6.88;;;;;;;;;;4816472;29;20244;-87
2021/01/10 12:58:24;;;;;;;8.20;6.30;;;;;;;;;;4802818;29;20223;-83
2021/01/10 13:00:53;;;;;;;9.90;6.60;;;;;;;;;;4803586;29;20216;-84
2021/01/10 13:03:20;;;;;;;7.95;6.07;;;;;;;;;;4819105;29;20232;-81
2021/01/10 13:05:49;;;;;;;7.70;5.73;;;;;;;;;;4805157;29;20577;-83
2021/01/10 13:08:16;;;;;;;9.13;6.10;;;;;;;;;;4818515;29;20212;-80
2021/01/10 13:10:44;;;;;;;8.83;6.17;;;;;;;;;;4805578;29;20675;-81
2021/01/10 13:13:11;;;;;;;8.93;6.00;;;;;;;;;;4819097;29;20730;-80
2021/01/10 13:15:39;;;;;;;9.27;5.43;;;;;;;;;;4804362;29;20236;-82
2021/01/10 13:18:07;;;;;;;10.07;6.80;;;;;;;;;;4803792;29;20711;-81
2021/01/10 13:20:35;;;;;;;8.03;5.60;;;;;;;;;;4801690;29;20216;-80
2021/01/10 13:23:03;;;;;;;7.70;5.50;;;;;;;;;;4813160;29;20245;-79
2021/01/10 13:25:31;;;;;;;9.33;5.97;;;;;;;;;;4802489;29;20223;-80
2021/01/10 13:27:58;;;;;;;8.93;5.63;;;;;;;;;;4823915;29;20947;-80
2021/01/10 13:30:26;;;;;;;8.20;5.63;;;;;;;;;;4802332;29;20215;-80
2021/01/10 13:32:54;;;;;;;8.67;5.90;;;;;;;;;;4803089;29;20236;-82
2021/01/10 13:35:22;;;;;;;8.27;5.27;;;;;;;;;;4806287;29;20715;-80
2021/01/10 13:37:50;;;;;;;10.77;6.37;;;;;;;;;;4818609;29;20216;-80
2021/01/10 13:40:19;;;;;;;13.30;5.20;;;;;;;;;;4804615;29;20220;-80
2021/01/10 13:42:47;;;;;;;8.50;5.40;;;;;;;;;;4818157;29;20224;-80
2021/01/10 13:45:14;;;;;;;8.80;5.23;;;;;;;;;;4804704;29;20209;-80
2021/01/10 13:47:43;;;;;;;11.63;5.70;;;;;;;;;;4802868;29;20208;-80
2021/01/10 13:50:11;;;;;;;10.90;5.97;;;;;;;;;;4784765;29;20212;-80
2021/01/10 13:52:39;;;;;;;7.73;5.30;;;;;;;;;;4800337;29;20236;-79
2021/01/10 13:55:08;;;;;;;9.10;5.57;;;;;;;;;;4803614;29;20223;-80
2021/01/10 13:57:37;;;;;;;12.53;6.23;;;;;;;;;;4818794;29;20212;-80
2021/01/10 14:00:10;;;;;;;10.23;6.10;;;;;;;;;;4801039;29;20235;-79
2021/01/10 14:02:38;;;;;;;10.73;5.97;;;;;;;;;;4818101;29;20228;-79
2021/01/10 14:05:07;;;;;;;9.60;6.23;;;;;;;;;;4804757;29;20214;-79
2021/01/10 14:07:35;;;;;;;9.13;5.53;;;;;;;;;;4808001;29;20213;-79
2021/01/10 14:10:04;;;;;;;11.73;6.70;;;;;;;;;;4806326;29;20212;-80
2021/01/10 14:12:32;;;;;;;10.80;6.17;;;;;;;;;;4789984;29;20240;-80
2021/01/10 14:15:00;;;;;;;8.67;5.30;;;;;;;;;;4803356;29;20246;-80
2021/01/10 14:17:29;;;;;;;8.13;5.33;;;;;;;;;;4817645;29;20224;-80
2021/01/10 14:19:56;;;;;;;10.20;5.80;;;;;;;;;;4801536;29;20216;-80
2021/01/10 14:22:24;;;;;;;9.40;6.47;;;;;;;;;;4800438;29;20231;-79
2021/01/10 14:24:52;;;;;;;10.03;6.20;;;;;;;;;;4799872;29;20675;-80
2021/01/10 14:27:21;;;;;;;8.43;5.60;;;;;;;;;;4801071;29;20210;-80
2021/01/10 14:29:49;;;;;;;10.00;5.87;;;;;;;;;;4800607;29;20679;-79
2021/01/10 14:32:18;;;;;;;8.23;5.47;;;;;;;;;;4815166;29;20216;-80
2021/01/10 14:34:45;;;;;;;10.73;6.17;;;;;;;;;;4800387;29;20212;-79
2021/01/10 14:37:13;;;;;;;10.60;6.70;;;;;;;;;;4782904;29;20235;-80
2021/01/10 14:39:40;;;;;;;9.80;6.27;;;;;;;;;;4786200;29;20200;-79
2021/01/10 14:42:08;;;;;;;9.80;6.63;;;;;;;;;;4798660;29;20683;-79
2021/01/10 14:44:36;;;;;;;12.03;7.13;;;;;;;;;;4802402;29;20719;-79
2021/01/10 14:47:03;;;;;;;10.80;6.23;;;;;;;;;;4805556;29;20213;-80
2021/01/10 14:49:32;;;;;;;10.27;6.63;;;;;;;;;;4821931;29;20239;-80
2021/01/10 14:52:00;;;;;;;10.93;6.13;;;;;;;;;;4809740;29;20204;-80
2021/01/10 14:54:27;;;;;;;10.07;5.90;;;;;;;;;;4802577;29;20224;-79
2021/01/10 14:56:57;;;;;;;10.60;6.03;;;;;;;;;;4818972;29;20231;-80
2021/01/10 14:59:25;;;;;;;9.83;6.10;;;;;;;;;;4805613;29;20215;-79
2021/01/10 15:01:53;;;;;;;10.27;6.10;;;;;;;;;;4790161;29;20212;-79